Briefing drone pour Chabris

Rechercher une autre localisation

Conditions de vol :


Nous sommes le : Lundi 25 janvier 2021
Il est 10:11 UTC (11:11 LT)

Lever de soleil : 07:00 UTC (08:00 LT)
Coucher de soleil : 17:10 UTC (18:10 LT)

Météo

L'essentiel des conditions de vol

VIGILANCE MÉTÉO FRANCE - Indre (36)
Vigilance Jaune : Neige-verglas
CARTES DES FRONTS
METAR de LFYR
LFYR 251000Z AUTO 31005KT 270V350 9999 FEW012 04/01 Q1009 NOSIG

Date d'émission: 25/01/2021
Heure d'émission: 10:00 UTC
Vent: 310° (variable du 270° au 350°) pour 5 KT (9 km/h)
Visibilité horizontale: > 10 km
Plafond :
- Peu de nuages à 1200ft (366m)
Température: 4 °C
Point de rosée: 1 °C
Humidité: 81%
Pression (QNH): 1009 hPa
Conditions: Pas de changement dans les 2 heures (NOSIG)
TAF de LFYR
AMD LFYR 021630Z 0216/0312 CNL

Conditions prévues :

Heure d'émission : Bulletin éffectué le 02 à 16:00 UTC
Prévision : Valide du 02 a 16:00 UTC au 03 a 12:00 UTC
Nuages : à 0ft (0 m)
WEBCAM POUR CHABRIS

Réglementation

Voler en sécurité

CARTES AERONAUTIQUE 1/500.000
CARTES VAC (LFYR)
SUP AIP




Chargement des AIP...
NOTAM (CHABRIS + Terrain à proximité / FIR )




Chargement des NOTAMS...
CONTACT PREFECTURE 36


Avertissement : Les données mises à disposition sont indicatives. Oxygène Drone ne pourra être tenu responsable de dégâts causés aux biens et aux personnes.